createdAt,value
2022-08-14T00:05:21.606Z,99.05
2022-08-14T00:15:43.387Z,99.32
2022-08-14T00:25:53.969Z,98.86
2022-08-14T00:36:36.388Z,97.18
2022-08-14T00:46:33.271Z,95.31
2022-08-14T00:56:36.430Z,94.59
2022-08-14T01:06:41.218Z,92.17
2022-08-14T01:16:44.246Z,90.06
2022-08-14T01:26:58.155Z,89.83
2022-08-14T01:37:04.860Z,89.80
2022-08-14T01:47:22.166Z,90.65
2022-08-14T01:57:24.920Z,91.02
2022-08-14T02:07:53.319Z,91.96
2022-08-14T02:18:04.471Z,92.06
2022-08-14T02:28:22.589Z,92.82
2022-08-14T02:38:34.297Z,94.72
2022-08-14T02:49:03.761Z,96.08
2022-08-14T02:59:10.355Z,97.76
2022-08-14T03:09:15.412Z,98.69
2022-08-14T03:19:19.514Z,99.74
2022-08-14T03:29:22.129Z,100.00
2022-08-14T03:39:30.703Z,100.00
2022-08-14T03:49:34.062Z,100.00
2022-08-14T03:59:38.869Z,100.00
2022-08-14T04:09:44.491Z,100.00
2022-08-14T04:19:47.557Z,100.00
2022-08-14T04:29:52.725Z,100.00
2022-08-14T04:40:15.237Z,100.00
2022-08-14T04:50:17.962Z,100.00
2022-08-14T05:00:22.706Z,100.00
2022-08-14T05:10:32.266Z,100.00
2022-08-14T05:21:54.427Z,100.00
2022-08-14T05:31:01.151Z,100.00
2022-08-14T05:41:10.252Z,100.00
2022-08-14T05:51:14.224Z,100.00
2022-08-14T06:01:17.817Z,100.00
2022-08-14T06:11:31.043Z,100.00
2022-08-14T06:21:34.285Z,100.00
2022-08-14T06:31:39.595Z,100.00
2022-08-14T06:41:58.006Z,100.00
2022-08-14T06:52:01.912Z,100.00
2022-08-14T07:02:25.090Z,100.00
2022-08-14T07:12:55.124Z,100.00
2022-08-14T07:23:01.472Z,90.23
2022-08-14T07:33:10.555Z,89.13
2022-08-14T07:43:16.752Z,82.39
2022-08-14T07:53:19.551Z,80.33
2022-08-14T08:03:25.231Z,79.13
2022-08-14T08:13:38.785Z,78.72
2022-08-14T08:23:51.134Z,81.17
2022-08-14T08:34:06.456Z,81.55
2022-08-14T08:44:17.042Z,83.64
2022-08-14T08:54:34.182Z,84.98
2022-08-14T09:04:44.955Z,83.19
2022-08-14T09:14:53.335Z,83.13
2022-08-14T09:24:55.969Z,83.12
2022-08-14T09:35:27.769Z,83.82
2022-08-14T09:45:40.271Z,84.73
2022-08-14T09:55:59.999Z,82.31
2022-08-14T10:06:23.637Z,82.18
2022-08-14T10:16:42.435Z,80.59
2022-08-14T10:27:00.556Z,79.99
2022-08-14T10:37:14.279Z,78.00
2022-08-14T10:47:40.162Z,77.20
2022-08-14T10:57:53.235Z,78.11
2022-08-14T11:07:59.807Z,76.38
2022-08-14T11:18:02.829Z,76.22
2022-08-14T11:28:11.081Z,74.20
2022-08-14T11:38:20.269Z,75.28
2022-08-14T11:49:01.694Z,74.93
2022-08-14T11:58:55.281Z,74.37
2022-08-14T12:09:00.574Z,74.07
2022-08-14T12:19:08.281Z,74.47
2022-08-14T12:29:16.359Z,73.83
2022-08-14T12:39:21.575Z,73.89
2022-08-14T12:49:28.521Z,73.52
2022-08-14T12:59:37.136Z,69.88
2022-08-14T13:09:45.179Z,70.01
2022-08-14T13:19:49.466Z,68.64
2022-08-14T13:29:57.070Z,68.68
2022-08-14T13:40:05.912Z,68.59
2022-08-14T13:50:18.293Z,67.63
2022-08-14T14:00:32.610Z,66.65
2022-08-14T14:10:36.756Z,67.06
2022-08-14T14:20:45.568Z,66.68
2022-08-14T14:30:57.167Z,66.58
2022-08-14T14:41:01.587Z,66.34
2022-08-14T14:51:09.019Z,66.98
2022-08-14T15:01:15.915Z,68.24
2022-08-14T15:11:20.424Z,67.51
2022-08-14T15:21:28.383Z,67.77
2022-08-14T15:31:36.645Z,67.20
2022-08-14T15:41:42.135Z,68.40
2022-08-14T15:51:50.962Z,68.96
2022-08-14T16:01:57.419Z,68.95
2022-08-14T16:12:03.733Z,69.13
2022-08-14T16:22:59.321Z,67.34
2022-08-14T16:32:35.856Z,67.19
2022-08-14T16:43:12.933Z,67.03
2022-08-14T16:53:17.158Z,69.46
2022-08-14T17:03:22.242Z,69.91
2022-08-14T17:13:59.775Z,70.91
2022-08-14T17:23:57.086Z,70.65
2022-08-14T17:34:02.450Z,73.09
2022-08-14T17:44:34.291Z,75.53
2022-08-14T17:54:58.786Z,76.34
2022-08-14T18:05:03.500Z,78.86
2022-08-14T18:15:16.481Z,81.31
2022-08-14T18:25:24.078Z,73.13
2022-08-14T18:35:59.146Z,64.89
2022-08-14T18:46:02.858Z,100.00
2022-08-14T18:56:10.304Z,100.00
2022-08-14T19:06:17.558Z,100.00
2022-08-14T19:16:22.881Z,100.00
2022-08-14T19:26:35.462Z,100.00
2022-08-14T19:37:05.609Z,100.00
2022-08-14T19:47:12.174Z,100.00
2022-08-14T19:57:23.200Z,100.00
2022-08-14T20:07:56.259Z,100.00
2022-08-14T20:18:05.097Z,100.00
2022-08-14T20:28:28.981Z,100.00
2022-08-14T20:38:33.985Z,100.00
2022-08-14T20:48:53.291Z,100.00
2022-08-14T20:59:17.580Z,100.00
2022-08-14T21:10:03.221Z,100.00
2022-08-14T21:19:50.573Z,100.00
2022-08-14T21:29:55.231Z,100.00
2022-08-14T21:40:18.541Z,100.00
2022-08-14T21:50:39.589Z,100.00
2022-08-14T22:00:46.785Z,100.00
2022-08-14T22:10:59.328Z,100.00
2022-08-14T22:21:05.883Z,100.00
2022-08-14T22:31:18.303Z,100.00
2022-08-14T22:41:29.596Z,100.00
2022-08-14T22:51:40.674Z,100.00
2022-08-14T23:01:58.716Z,100.00
2022-08-14T23:12:03.508Z,100.00
2022-08-14T23:22:08.103Z,100.00
2022-08-14T23:32:18.812Z,100.00
2022-08-14T23:42:51.142Z,100.00
2022-08-14T23:53:06.583Z,100.00
